Ana Sayfa
METAR-TAF:

METAR-TAF

Havaalanları :

Dalian Zhoushuizi Uluslararası Havalimanı

Dalian, Çin

Enlem: 38-54N, Boylam: 121-38E, yükseklik: 97 m

Güncel hava durumu gözlemi

Rapor saat 21:00 UTC de 35 dakika önce yapıldı.
Rüzgar doğu/kuzeydoğudan 8 kt
Sıcaklık 18°C
Nem 68%
Basınç 1008 hPa
Görüş mesafesi 10 km veya daha fazla
1500 m altında bulut yok ve kümülonimbus yok

METAR: ZYTL 242100Z 07004MPS CAVOK 18/12 Q1008 NOSIG

Saat: 05:35 (21:35 UTC)

Tahmin

Rapor saat 14:49 UTC de 6 saat ve 46 dakika önce yapıldı.
Ayın 24'si saat 18 UTC'den ayın 25'si saat 18 UTC'ye kadar geçerli Tahmin
Rüzgar doğudan 8 kt ve 19 kt'a kadar ani rüzgarlar
Görüş mesafesi: 5000 m
Pus

TAF: ZYTL 241449Z 2418/2518 10004G10MPS 5000 BR NSC TX32/2506Z TN18/2420Z

4.000'den fazla havaalanı için hava durumu gözlemleri ve tahminleri (METAR ve TAF raporları).

Kullanılabilir istasyonlar harita üzerinde sarı ve kırmızı noktalarla gösterilir.

İstasyonun adını görmek için fareyi noktanın üzerinde gezdirin.

Sonrasında hava gözlem ve tahminlerini görmek için tıklayın.

Haritayı değiştirmek için: yaklaştırmak için siyah artı işaretli yeşil düğmeye ve uzaklaştırmak için de eksi işaretli düğmeye hızla tıklayın; bitişik haritalar için yeşil okları kullanın.


METAR-TAF: